Time;durP1;ratioP1;P1;durP2;ratioP2;P2;SDS_P1;SDS_P2;PMS_P1;PMS_P2;Temp;Humidity;BMP_temperature;BMP_pressure;BME280_temperature;BME280_humidity;BME280_pressure;Samples;Min_cycle;Max_cycle;Signal;HPM_P1;HPM_P2
2021/07/15 00:01:39;;;;;;;18.05;10.60;;;717.30;1536.00;;;;;;5096233;28;20081;-60
2021/07/15 00:04:05;;;;;;;17.00;10.60;;;717.30;1536.00;;;;;;5094864;28;20101;-59
2021/07/15 00:06:31;;;;;;;21.77;11.30;;;717.30;1536.00;;;;;;5095390;28;20463;-52
2021/07/15 00:08:57;;;;;;;19.83;10.60;;;717.30;1536.00;;;;;;5095557;28;20073;-59
2021/07/15 00:11:28;;;;;;;17.60;10.13;;;717.30;1536.00;;;;;;5095487;28;20468;-59
2021/07/15 00:13:56;;;;;;;20.35;11.63;;;717.30;1561.60;;;;;;5095746;28;20602;-52
2021/07/15 00:16:23;;;;;;;20.77;11.43;;;717.30;1536.00;;;;;;5095375;28;20096;-53
2021/07/15 00:18:50;;;;;;;22.88;10.38;;;717.30;1536.00;;;;;;5095346;28;20024;-52
2021/07/15 00:21:19;;;;;;;23.08;10.68;;;717.30;1536.00;;;;;;5094742;28;20016;-54
2021/07/15 00:23:46;;;;;;;18.20;11.32;;;717.20;1561.60;;;;;;5094824;28;20043;-52
2021/07/15 00:26:12;;;;;;;18.70;11.50;;;717.30;1561.60;;;;;;5094432;28;20040;-59
2021/07/15 00:28:39;;;;;;;22.13;12.27;;;717.30;1561.60;;;;;;5094547;28;20103;-59
2021/07/15 00:31:06;;;;;;;18.65;11.45;;;717.30;1561.60;;;;;;5094266;28;20389;-56
2021/07/15 00:33:32;;;;;;;21.48;11.52;;;717.20;1561.60;;;;;;5093759;28;20035;-59
2021/07/15 00:35:59;;;;;;;18.15;12.02;;;717.20;1561.60;;;;;;5094961;28;20106;-59
2021/07/15 00:38:25;;;;;;;18.70;11.18;;;717.10;1587.20;;;;;;5094891;28;20408;-52
2021/07/15 00:40:52;;;;;;;15.80;11.05;;;717.10;1561.60;;;;;;5094871;28;20035;-59
2021/07/15 00:43:18;;;;;;;19.52;11.88;;;717.10;1561.60;;;;;;5095100;28;20380;-59
2021/07/15 00:45:45;;;;;;;20.15;12.05;;;717.10;1561.60;;;;;;5094693;28;20038;-55
2021/07/15 00:48:11;;;;;;;18.35;11.48;;;717.10;1587.20;;;;;;5094900;28;20059;-60
2021/07/15 00:50:38;;;;;;;22.38;12.45;;;717.10;1587.20;;;;;;5094705;28;20107;-60
2021/07/15 00:53:05;;;;;;;16.17;11.20;;;717.10;1561.60;;;;;;5094611;28;20028;-60
2021/07/15 00:55:34;;;;;;;20.00;11.48;;;717.00;1587.20;;;;;;5094534;28;20024;-59
2021/07/15 00:58:01;;;;;;;17.48;11.57;;;717.00;1587.20;;;;;;5094546;28;20358;-60
2021/07/15 01:00:27;;;;;;;17.45;11.60;;;717.00;1587.20;;;;;;5094507;28;20023;-60
2021/07/15 01:02:54;;;;;;;21.63;11.88;;;717.00;1587.20;;;;;;5093185;28;20028;-60
2021/07/15 01:05:30;;;;;;;23.65;12.52;;;717.00;1587.20;;;;;;5094417;28;20065;-60
2021/07/15 01:07:56;;;;;;;20.50;11.65;;;716.90;1587.20;;;;;;5094264;28;20511;-52
2021/07/15 01:10:28;;;;;;;17.65;11.63;;;716.90;1587.20;;;;;;5094277;28;20028;-60
2021/07/15 01:13:19;;;;;;;18.45;11.55;;;716.90;1587.20;;;;;;5093029;28;20032;-59
2021/07/15 01:15:53;;;;;;;20.15;12.27;;;716.90;1587.20;;;;;;5094703;28;20118;-52
2021/07/15 01:18:29;;;;;;;19.60;12.13;;;716.90;1587.20;;;;;;5094757;28;20062;-59
2021/07/15 01:21:18;;;;;;;19.95;11.65;;;716.90;1587.20;;;;;;5094472;28;20032;-52
2021/07/15 01:24:21;;;;;;;22.33;12.50;;;716.90;1587.20;;;;;;5094451;28;20019;-55
2021/07/15 01:26:58;;;;;;;18.23;11.52;;;716.90;1612.80;;;;;;5094040;28;20115;-59
2021/07/15 01:29:30;;;;;;;16.98;11.90;;;716.80;1612.80;;;;;;5094340;28;20031;-53
2021/07/15 01:32:03;;;;;;;25.23;12.23;;;716.80;1612.80;;;;;;5094231;28;20028;-52
2021/07/15 01:34:30;;;;;;;19.88;12.27;;;692.00;1612.80;;;;;;5094196;28;20048;-61
2021/07/15 01:36:57;;;;;;;23.77;12.45;;;692.00;1638.40;;;;;;5094142;28;20480;-59
2021/07/15 01:39:28;;;;;;;19.98;12.27;;;692.00;1638.40;;;;;;5093935;28;20024;-60
2021/07/15 01:42:00;;;;;;;17.90;12.52;;;692.00;1612.80;;;;;;5093816;28;20024;-55
2021/07/15 01:44:29;;;;;;;17.83;11.77;;;692.00;1638.40;;;;;;5093893;28;20020;-59
2021/07/15 01:46:55;;;;;;;23.85;12.35;;;692.00;1612.80;;;;;;5093634;28;20146;-55
2021/07/15 01:49:24;;;;;;;20.23;12.63;;;692.00;1638.40;;;;;;5094340;28;20027;-60
2021/07/15 01:51:52;;;;;;;18.13;11.68;;;692.00;1638.40;;;;;;5093655;28;20020;-59
2021/07/15 01:54:18;;;;;;;19.42;12.48;;;692.00;1638.40;;;;;;5093704;28;20031;-59
2021/07/15 01:56:44;;;;;;;17.55;12.32;;;692.10;1638.40;;;;;;5093951;28;20028;-59
2021/07/15 01:59:19;;;;;;;19.08;12.45;;;692.10;1638.40;;;;;;5093931;28;20085;-59
2021/07/15 02:01:48;;;;;;;17.70;12.30;;;692.00;1638.40;;;;;;5093753;28;20030;-59
2021/07/15 02:04:15;;;;;;;22.85;12.05;;;692.10;1638.40;;;;;;5093538;28;20020;-56
2021/07/15 02:06:43;;;;;;;24.13;11.88;;;692.00;1638.40;;;;;;5093528;28;20024;-59
2021/07/15 02:09:11;;;;;;;19.58;13.70;;;692.00;1638.40;;;;;;5093820;28;20372;-51
2021/07/15 02:11:39;;;;;;;20.63;11.75;;;692.00;1664.00;;;;;;5093453;28;20430;-59
2021/07/15 02:14:09;;;;;;;16.25;12.15;;;692.00;1664.00;;;;;;5093502;28;20420;-59
2021/07/15 02:16:38;;;;;;;18.70;12.52;;;691.90;1689.60;;;;;;5093619;28;20024;-59
2021/07/15 02:19:07;;;;;;;21.20;13.23;;;692.00;1664.00;;;;;;5093435;28;20039;-51
2021/07/15 02:21:37;;;;;;;22.17;12.45;;;692.00;1664.00;;;;;;5093433;28;20016;-60
2021/07/15 02:24:05;;;;;;;26.15;12.18;;;692.00;1664.00;;;;;;5093401;28;20094;-59
2021/07/15 02:26:33;;;;;;;24.52;11.13;;;692.00;1664.00;;;;;;5094063;28;20040;-51
2021/07/15 02:29:00;;;;;;;21.15;10.75;;;691.90;1664.00;;;;;;5097409;28;20020;-51
2021/07/15 02:31:36;;;;;;;17.23;11.38;;;691.90;1689.60;;;;;;5097716;28;20016;-60
2021/07/15 02:34:06;;;;;;;18.70;9.82;;;691.90;1664.00;;;;;;5097654;28;20481;-59
2021/07/15 02:36:33;;;;;;;17.52;10.15;;;691.80;1664.00;;;;;;5097223;28;20024;-59
2021/07/15 02:39:01;;;;;;;16.13;8.80;;;691.90;1638.40;;;;;;5097254;28;20016;-59
2021/07/15 02:41:28;;;;;;;14.48;8.45;;;691.90;1638.40;;;;;;5097482;28;20350;-59
2021/07/15 02:43:54;;;;;;;14.43;7.68;;;691.90;1638.40;;;;;;5097365;28;20115;-59
2021/07/15 02:46:20;;;;;;;12.65;7.32;;;691.90;1612.80;;;;;;5097019;28;20032;-59
2021/07/15 02:48:46;;;;;;;11.75;7.30;;;691.90;1612.80;;;;;;5097076;28;20384;-59
2021/07/15 02:51:12;;;;;;;14.02;6.97;;;691.80;1587.20;;;;;;5096952;28;20028;-59
2021/07/15 02:53:39;;;;;;;13.55;6.72;;;691.80;1587.20;;;;;;5097254;28;20016;-59
2021/07/15 02:56:29;;;;;;;10.70;6.50;;;691.80;1587.20;;;;;;5096919;28;20028;-52
2021/07/15 02:59:33;;;;;;;16.67;6.22;;;691.80;1587.20;;;;;;5097234;28;20430;-53
2021/07/15 03:02:21;;;;;;;9.80;5.93;;;691.80;1561.60;;;;;;5096203;28;20429;-60
2021/07/15 03:05:00;;;;;;;10.13;6.30;;;691.70;1561.60;;;;;;5097416;28;20373;-59
2021/07/15 03:07:30;;;;;;;17.65;6.03;;;691.70;1561.60;;;;;;5096655;28;20059;-59
2021/07/15 03:09:57;;;;;;;14.55;5.47;;;691.70;1536.00;;;;;;5096870;28;20012;-53
2021/07/15 03:12:24;;;;;;;10.55;5.07;;;691.60;1536.00;;;;;;5095314;28;20489;-59
2021/07/15 03:14:54;;;;;;;11.25;5.55;;;691.60;1536.00;;;;;;5096818;28;20460;-59
2021/07/15 03:17:27;;;;;;;13.18;5.55;;;691.60;1510.40;;;;;;5096572;28;20029;-59
2021/07/15 03:19:56;;;;;;;13.25;5.45;;;691.60;1510.40;;;;;;5096533;28;20023;-59
2021/07/15 03:22:25;;;;;;;12.65;5.28;;;691.50;1510.40;;;;;;5096666;28;20017;-60
2021/07/15 03:24:55;;;;;;;13.65;5.05;;;691.50;1484.80;;;;;;5096042;28;20040;-60
2021/07/15 03:27:24;;;;;;;10.48;4.93;;;691.30;1510.40;;;;;;5096601;28;20110;-60
2021/07/15 03:29:50;;;;;;;18.30;4.70;;;691.30;1484.80;;;;;;5096270;28;20158;-59
2021/07/15 03:32:18;;;;;;;11.95;4.70;;;691.20;1484.80;;;;;;5096555;28;20024;-60
2021/07/15 03:34:45;;;;;;;11.90;4.22;;;691.30;1510.40;;;;;;5096237;28;20024;-59
2021/07/15 03:37:11;;;;;;;11.68;4.45;;;691.30;1510.40;;;;;;5095913;28;20427;-60
2021/07/15 03:39:38;;;;;;;12.90;4.90;;;691.20;1484.80;;;;;;5095013;28;20044;-59
2021/07/15 03:42:05;;;;;;;10.85;4.13;;;666.50;1484.80;;;;;;5096046;28;20451;-56
2021/07/15 03:44:31;;;;;;;11.18;4.43;;;666.40;1484.80;;;;;;5095987;28;20024;-59
2021/07/15 03:46:58;;;;;;;9.35;3.40;;;666.30;1484.80;;;;;;5095892;28;20473;-52
2021/07/15 03:49:28;;;;;;;13.52;3.75;;;666.40;1484.80;;;;;;5095915;28;20016;-60
2021/07/15 03:51:54;;;;;;;10.90;3.45;;;666.30;1459.20;;;;;;5096076;28;20058;-59
2021/07/15 03:54:22;;;;;;;10.52;3.53;;;666.30;1459.20;;;;;;5096074;28;20016;-59
2021/07/15 03:56:49;;;;;;;9.35;2.95;;;666.30;1433.60;;;;;;5095920;28;20376;-51
2021/07/15 03:59:18;;;;;;;9.68;2.97;;;666.30;1459.20;;;;;;5095684;28;20078;-58
2021/07/15 04:01:44;;;;;;;9.60;2.80;;;666.30;1433.60;;;;;;5096116;28;20016;-60
2021/07/15 04:04:13;;;;;;;7.32;2.70;;;666.30;1459.20;;;;;;5095629;28;20031;-60
2021/07/15 04:06:42;;;;;;;5.50;2.33;;;666.40;1459.20;;;;;;5095480;28;20028;-52
2021/07/15 04:09:09;;;;;;;13.68;3.03;;;666.30;1408.00;;;;;;5095818;28;20024;-60
2021/07/15 04:11:42;;;;;;;10.88;3.10;;;666.40;1408.00;;;;;;5095448;28;20030;-52
2021/07/15 04:14:17;;;;;;;6.13;2.08;;;666.30;1433.60;;;;;;5096070;28;20107;-58
2021/07/15 04:16:59;;;;;;;8.77;2.67;;;666.20;1433.60;;;;;;5095384;28;20502;-56
2021/07/15 04:19:27;;;;;;;9.68;3.22;;;666.10;1433.60;;;;;;5095499;28;20035;-52
2021/07/15 04:21:54;;;;;;;10.38;3.83;;;665.90;1433.60;;;;;;5095539;28;20358;-60
2021/07/15 04:24:22;;;;;;;10.68;3.35;;;665.80;1433.60;;;;;;5095815;28;20087;-51
2021/07/15 04:26:49;;;;;;;13.13;2.92;;;665.70;1459.20;;;;;;5094919;28;20105;-59
2021/07/15 04:29:18;;;;;;;11.18;2.75;;;665.70;1459.20;;;;;;5095123;28;20036;-59
2021/07/15 04:31:58;;;;;;;10.82;2.55;;;665.80;1459.20;;;;;;5095046;28;20024;-60
2021/07/15 04:34:29;;;;;;;8.10;2.65;;;665.80;1459.20;;;;;;5095073;28;20028;-60
2021/07/15 04:36:56;;;;;;;8.55;2.80;;;666.00;1459.20;;;;;;5094957;28;20476;-54
2021/07/15 04:39:25;;;;;;;10.55;2.95;;;666.10;1459.20;;;;;;5095211;28;20027;-59
2021/07/15 04:41:51;;;;;;;10.98;2.28;;;666.10;1459.20;;;;;;5094828;28;20423;-59
2021/07/15 04:44:19;;;;;;;7.13;2.17;;;666.10;1459.20;;;;;;5095123;28;20024;-59
2021/07/15 04:46:45;;;;;;;6.22;2.25;;;666.10;1459.20;;;;;;5094708;28;20090;-56
2021/07/15 04:49:10;;;;;;;7.15;2.40;;;666.10;1433.60;;;;;;5094291;28;20020;-60
2021/07/15 04:51:41;;;;;;;9.65;2.50;;;666.10;1459.20;;;;;;5094672;28;20028;-59
2021/07/15 04:54:08;;;;;;;6.93;2.28;;;666.20;1433.60;;;;;;5094651;28;20016;-59
2021/07/15 04:56:35;;;;;;;7.78;3.10;;;666.20;1433.60;;;;;;5094844;28;20028;-60
2021/07/15 04:59:03;;;;;;;7.70;2.40;;;666.10;1433.60;;;;;;5094560;28;20577;-57
2021/07/15 05:01:30;;;;;;;7.47;1.80;;;666.10;1459.20;;;;;;5094498;28;20546;-59
2021/07/15 05:03:56;;;;;;;7.78;2.00;;;666.10;1433.60;;;;;;5094438;28;20480;-56
2021/07/15 05:06:22;;;;;;;6.18;2.17;;;666.10;1433.60;;;;;;5094910;28;20039;-60
2021/07/15 05:08:49;;;;;;;5.45;1.83;;;666.10;1433.60;;;;;;5094344;28;20031;-60
2021/07/15 05:11:15;;;;;;;6.75;2.17;;;666.10;1433.60;;;;;;5092974;28;20028;-54
2021/07/15 05:13:41;;;;;;;8.02;2.05;;;666.10;1433.60;;;;;;5094345;28;20024;-60
2021/07/15 05:16:07;;;;;;;6.88;2.30;;;666.10;1433.60;;;;;;5094291;28;20020;-52
2021/07/15 05:18:34;;;;;;;8.10;2.42;;;666.20;1433.60;;;;;;5094439;28;20024;-60
2021/07/15 05:21:00;;;;;;;8.60;2.20;;;666.20;1433.60;;;;;;5094218;28;20095;-60
2021/07/15 05:23:26;;;;;;;6.22;2.47;;;666.10;1433.60;;;;;;5094589;28;20077;-60
2021/07/15 05:25:54;;;;;;;7.90;2.40;;;666.20;1433.60;;;;;;5093936;28;20048;-59
2021/07/15 05:28:23;;;;;;;5.80;2.30;;;666.20;1433.60;;;;;;5092803;28;20048;-60
2021/07/15 05:30:49;;;;;;;11.27;2.70;;;666.30;1433.60;;;;;;5093995;28;20012;-60
2021/07/15 05:33:15;;;;;;;7.03;2.78;;;666.30;1433.60;;;;;;5093978;28;20533;-60
2021/07/15 05:35:42;;;;;;;7.97;2.45;;;666.30;1433.60;;;;;;5093896;28;20031;-59
2021/07/15 05:38:09;;;;;;;5.72;2.03;;;666.30;1433.60;;;;;;5093964;28;20460;-59
2021/07/15 05:40:35;;;;;;;4.60;1.92;;;666.30;1433.60;;;;;;5093890;28;20042;-56
2021/07/15 05:43:01;;;;;;;7.25;2.55;;;666.30;1433.60;;;;;;5094098;28;20524;-60
2021/07/15 05:45:27;;;;;;;4.72;2.20;;;666.40;1408.00;;;;;;5094062;28;20062;-52
2021/07/15 05:47:53;;;;;;;10.18;2.60;;;666.40;1433.60;;;;;;5093711;28;20032;-60
2021/07/15 05:50:19;;;;;;;5.47;1.73;;;666.40;1408.00;;;;;;5093935;28;20418;-59
2021/07/15 05:52:45;;;;;;;5.53;2.03;;;666.40;1408.00;;;;;;5093751;28;20032;-53
2021/07/15 05:55:12;;;;;;;6.55;2.08;;;666.50;1408.00;;;;;;5094158;28;20016;-60
2021/07/15 05:57:38;;;;;;;7.70;2.40;;;666.50;1408.00;;;;;;5093625;28;20027;-59
2021/07/15 06:00:07;;;;;;;11.68;3.72;;;691.20;1408.00;;;;;;5093867;28;20036;-58
2021/07/15 06:02:33;;;;;;;7.05;2.30;;;691.30;1408.00;;;;;;5093072;28;20016;-59
2021/07/15 06:04:59;;;;;;;6.43;2.13;;;691.30;1408.00;;;;;;5093580;28;20380;-60
2021/07/15 06:07:26;;;;;;;8.75;2.33;;;691.30;1408.00;;;;;;5093412;28;20388;-52
2021/07/15 06:09:53;;;;;;;7.95;2.30;;;691.40;1408.00;;;;;;5093595;28;20021;-60
2021/07/15 06:12:19;;;;;;;6.38;2.22;;;691.40;1382.40;;;;;;5093459;28;20030;-60
2021/07/15 06:14:45;;;;;;;7.07;2.33;;;691.50;1382.40;;;;;;5093458;28;20458;-52
2021/07/15 06:17:11;;;;;;;3.85;1.70;;;691.40;1356.80;;;;;;5093727;28;20099;-60
2021/07/15 06:19:37;;;;;;;4.32;1.63;;;691.40;1356.80;;;;;;5093400;28;20016;-59
2021/07/15 06:22:03;;;;;;;6.68;1.60;;;691.40;1331.20;;;;;;5093448;28;20111;-51
2021/07/15 06:24:30;;;;;;;5.63;1.80;;;691.50;1356.80;;;;;;5093344;28;20025;-60
2021/07/15 06:26:56;;;;;;;5.90;1.60;;;691.50;1331.20;;;;;;5093147;28;20101;-59
2021/07/15 06:29:22;;;;;;;7.75;1.95;;;691.70;1331.20;;;;;;5093356;28;20022;-60
2021/07/15 06:31:48;;;;;;;4.50;1.90;;;691.70;1305.60;;;;;;5092994;28;20024;-59
2021/07/15 06:34:15;;;;;;;10.63;2.10;;;691.80;1305.60;;;;;;5093310;28;20039;-58
2021/07/15 06:36:44;;;;;;;7.60;1.75;;;691.90;1305.60;;;;;;5093256;28;20031;-60
2021/07/15 06:39:10;;;;;;;3.40;1.58;;;691.90;1254.40;;;;;;5093341;28;20077;-60
2021/07/15 06:41:36;;;;;;;5.18;2.08;;;691.90;1305.60;;;;;;5093489;28;20118;-59
2021/07/15 06:44:03;;;;;;;5.03;1.65;;;692.00;1305.60;;;;;;5093204;28;20484;-59
2021/07/15 06:46:30;;;;;;;6.43;2.10;;;716.80;1305.60;;;;;;5092184;28;20111;-59
2021/07/15 06:48:56;;;;;;;6.82;1.95;;;716.80;1305.60;;;;;;5093100;28;20039;-52
2021/07/15 06:51:22;;;;;;;4.30;1.50;;;716.80;1254.40;;;;;;5093063;28;20020;-59
2021/07/15 06:53:49;;;;;;;3.88;1.40;;;716.80;1305.60;;;;;;5093139;28;20020;-59
2021/07/15 06:56:15;;;;;;;5.47;1.77;;;716.90;1305.60;;;;;;5093106;28;20024;-59
2021/07/15 06:58:41;;;;;;;3.67;1.90;;;716.90;1280.00;;;;;;5093095;28;20043;-59
2021/07/15 07:01:08;;;;;;;4.43;1.88;;;717.00;1305.60;;;;;;5093009;28;20077;-51
2021/07/15 07:03:35;;;;;;;3.60;1.70;;;717.20;1305.60;;;;;;5093356;28;20020;-58
2021/07/15 07:06:02;;;;;;;10.93;2.30;;;717.20;1305.60;;;;;;5093241;28;20024;-59
2021/07/15 07:08:28;;;;;;;5.25;1.50;;;717.20;1305.60;;;;;;5092750;28;20020;-59
2021/07/15 07:10:54;;;;;;;5.70;1.75;;;717.30;1305.60;;;;;;5092957;28;20028;-59
2021/07/15 07:13:20;;;;;;;6.50;1.90;;;717.30;1280.00;;;;;;5094566;28;20032;-60
2021/07/15 07:15:45;;;;;;;13.68;3.15;;;717.50;1280.00;;;;;;5096586;28;20050;-58
2021/07/15 07:18:11;;;;;;;125.20;42.95;;;717.50;1280.00;;;;;;5096544;28;20417;-59
2021/07/15 07:20:37;;;;;;;26.85;7.97;;;717.50;1280.00;;;;;;5096650;28;20028;-49
2021/07/15 07:23:12;;;;;;;5.65;2.35;;;717.60;1254.40;;;;;;5095807;28;20020;-58
2021/07/15 07:25:39;;;;;;;3.72;1.88;;;717.70;1203.20;;;;;;5076089;28;20053;-59
2021/07/15 07:28:05;;;;;;;5.22;1.80;;;742.40;1228.80;;;;;;5076613;28;20477;-55
2021/07/15 07:30:30;;;;;;;4.95;1.50;;;742.40;1228.80;;;;;;5076088;28;20075;-58
2021/07/15 07:32:56;;;;;;;5.40;1.45;;;742.50;1228.80;;;;;;5076288;28;20488;-52
2021/07/15 07:35:23;;;;;;;11.18;2.38;;;742.60;1203.20;;;;;;5075958;28;20096;-54
2021/07/15 07:37:49;;;;;;;13.65;2.45;;;742.60;1177.60;;;;;;5075934;28;20078;-54
2021/07/15 07:40:16;;;;;;;5.70;1.67;;;742.80;1177.60;;;;;;5075925;28;20103;-57
2021/07/15 07:42:43;;;;;;;7.15;2.05;;;742.80;1152.00;;;;;;5075813;28;20054;-55
2021/07/15 07:45:10;;;;;;;9.07;1.65;;;742.90;1177.60;;;;;;5075783;28;20405;-59
2021/07/15 07:47:37;;;;;;;6.55;1.55;;;742.90;1126.40;;;;;;5075710;28;20033;-59
2021/07/15 07:50:06;;;;;;;4.05;1.65;;;742.90;1177.60;;;;;;5075986;28;20074;-59
2021/07/15 07:52:32;;;;;;;4.82;1.90;;;742.90;1152.00;;;;;;5075629;28;20021;-59
2021/07/15 07:54:58;;;;;;;12.13;2.13;;;742.90;1152.00;;;;;;5076070;28;20147;-59
2021/07/15 07:57:24;;;;;;;5.35;1.50;;;743.00;1152.00;;;;;;5075609;28;20099;-52
2021/07/15 07:59:50;;;;;;;3.90;1.92;;;743.10;1075.20;;;;;;5075750;28;20032;-52
2021/07/15 08:02:16;;;;;;;5.10;1.75;;;743.00;1075.20;;;;;;5075496;28;20052;-52
2021/07/15 08:04:42;;;;;;;5.95;1.65;;;742.90;1100.80;;;;;;5075432;28;20477;-59
2021/07/15 08:07:14;;;;;;;7.90;1.85;;;743.00;1152.00;;;;;;5075181;28;20040;-59
2021/07/15 08:09:45;;;;;;;4.63;1.70;;;743.10;1126.40;;;;;;5075670;28;20424;-59
2021/07/15 08:12:15;;;;;;;5.95;1.60;;;743.10;1126.40;;;;;;5083588;28;20384;-59
2021/07/15 08:14:42;;;;;;;4.78;1.42;;;743.10;1152.00;;;;;;5096050;28;20081;-59
2021/07/15 08:17:08;;;;;;;5.28;1.73;;;743.10;1126.40;;;;;;5095381;28;20035;-51
2021/07/15 08:19:35;;;;;;;2.65;1.50;;;743.10;1100.80;;;;;;5095579;28;20090;-59
2021/07/15 08:22:01;;;;;;;4.32;1.83;;;743.10;1126.40;;;;;;5095322;28;20024;-58
2021/07/15 08:24:27;;;;;;;4.03;1.67;;;743.00;1100.80;;;;;;5094515;28;20091;-51
2021/07/15 08:26:53;;;;;;;7.95;1.92;;;743.10;1126.40;;;;;;5094967;28;20040;-60
2021/07/15 08:29:19;;;;;;;7.03;2.03;;;743.10;1075.20;;;;;;5095440;28;20038;-59
2021/07/15 08:31:45;;;;;;;4.75;1.90;;;743.20;1100.80;;;;;;5094522;28;20039;-52
2021/07/15 08:34:12;;;;;;;8.00;2.00;;;743.30;1100.80;;;;;;5094510;28;20020;-55
2021/07/15 08:36:38;;;;;;;5.53;1.67;;;743.10;1075.20;;;;;;5094522;28;20520;-51
2021/07/15 08:39:07;;;;;;;5.00;1.80;;;743.20;1100.80;;;;;;5094489;28;20069;-50
2021/07/15 08:41:33;;;;;;;9.05;1.83;;;743.20;1100.80;;;;;;5094462;28;20076;-58
2021/07/15 08:43:59;;;;;;;4.38;1.77;;;743.30;1049.60;;;;;;5094471;28;20030;-59
2021/07/15 08:46:25;;;;;;;4.15;1.58;;;768.00;1126.40;;;;;;5094265;28;20586;-51
2021/07/15 08:48:52;;;;;;;5.75;1.65;;;768.00;1126.40;;;;;;5094323;28;20103;-59
2021/07/15 08:51:18;;;;;;;3.60;1.40;;;768.00;1049.60;;;;;;5091585;28;20488;-56
2021/07/15 08:53:45;;;;;;;7.10;1.38;;;768.10;1075.20;;;;;;5094245;28;20112;-58
2021/07/15 08:58:58;;;;;;;5.00;1.42;;;768.20;1049.60;;;;;;5091622;28;20031;-52
2021/07/15 09:01:26;;;;;;;4.00;1.42;;;768.20;1024.00;;;;;;5092854;28;20115;-53
2021/07/15 09:03:52;;;;;;;7.22;3.05;;;768.00;1024.00;;;;;;5093851;28;20038;-51
2021/07/15 09:06:18;;;;;;;10.48;3.72;;;743.30;1024.00;;;;;;5093693;28;20031;-58
2021/07/15 09:08:43;;;;;;;7.13;1.65;;;768.00;1075.20;;;;;;5093986;28;20020;-54
2021/07/15 09:11:09;;;;;;;5.20;1.85;;;768.00;1075.20;;;;;;5093860;28;20023;-52
2021/07/15 09:13:35;;;;;;;5.53;1.50;;;768.10;1075.20;;;;;;5093860;28;20103;-54
2021/07/15 09:16:10;;;;;;;4.07;1.60;;;768.20;1049.60;;;;;;5093736;28;20030;-58
2021/07/15 09:18:56;;;;;;;8.27;1.83;;;768.20;1075.20;;;;;;5094020;28;20056;-59
2021/07/15 09:21:28;;;;;;;4.15;1.52;;;768.20;1049.60;;;;;;5091098;28;20058;-59
2021/07/15 09:23:54;;;;;;;6.50;1.65;;;768.30;1049.60;;;;;;5093773;28;20024;-57
2021/07/15 09:26:20;;;;;;;2.55;1.08;;;768.20;972.80;;;;;;5093268;28;20039;-59
2021/07/15 09:28:47;;;;;;;4.53;1.52;;;768.30;1024.00;;;;;;5093564;28;20017;-53
2021/07/15 09:31:19;;;;;;;22.85;2.22;;;768.50;1024.00;;;;;;5093630;28;20012;-59
2021/07/15 09:33:46;;;;;;;3.95;1.60;;;768.50;1049.60;;;;;;5091510;28;20031;-54
2021/07/15 09:36:14;;;;;;;6.40;1.48;;;768.50;1024.00;;;;;;5093570;28;20016;-52
2021/07/15 09:38:41;;;;;;;4.22;1.23;;;768.50;972.80;;;;;;5093424;28;20103;-59
2021/07/15 09:41:07;;;;;;;5.93;1.52;;;768.30;998.40;;;;;;5092926;28;20020;-59
2021/07/15 09:43:38;;;;;;;5.88;1.50;;;768.30;972.80;;;;;;5093279;28;20020;-53
2021/07/15 09:46:13;;;;;;;8.82;1.60;;;768.30;972.80;;;;;;5093233;28;20024;-56
2021/07/15 09:48:44;;;;;;;7.03;1.45;;;768.50;1024.00;;;;;;5091267;28;20016;-57
2021/07/15 09:51:12;;;;;;;4.75;1.30;;;768.50;947.20;;;;;;5093173;28;20013;-55
2021/07/15 09:53:40;;;;;;;5.75;1.60;;;768.50;972.80;;;;;;5093319;28;20065;-51
2021/07/15 09:56:08;;;;;;;7.97;2.20;;;768.50;1049.60;;;;;;5092908;28;20023;-52
2021/07/15 09:58:42;;;;;;;6.00;1.50;;;768.50;1024.00;;;;;;5093266;28;20048;-60
2021/07/15 10:01:13;;;;;;;5.90;2.08;;;768.50;1024.00;;;;;;5091268;28;20042;-60
2021/07/15 10:03:50;;;;;;;3.00;1.58;;;768.50;1075.20;;;;;;5093026;28;20024;-60
2021/07/15 10:06:18;;;;;;;4.55;1.77;;;768.50;998.40;;;;;;5092999;28;20491;-53
2021/07/15 10:08:46;;;;;;;4.25;1.58;;;768.50;1049.60;;;;;;5090542;28;20031;-52
2021/07/15 10:11:20;;;;;;;8.30;1.73;;;768.60;1024.00;;;;;;5093336;28;20027;-53
2021/07/15 10:13:58;;;;;;;6.65;2.00;;;768.60;998.40;;;;;;5090496;28;20028;-52
2021/07/15 10:16:28;;;;;;;3.78;1.10;;;768.60;947.20;;;;;;5093001;28;20016;-59
2021/07/15 10:18:54;;;;;;;5.32;1.65;;;768.60;947.20;;;;;;5093492;28;20430;-53
2021/07/15 10:21:29;;;;;;;6.13;1.67;;;768.70;947.20;;;;;;5093166;28;20028;-56
2021/07/15 10:23:56;;;;;;;10.50;3.20;;;768.70;998.40;;;;;;5090781;28;20028;-59
2021/07/15 10:26:22;;;;;;;16.63;5.18;;;768.70;998.40;;;;;;5093103;28;20123;-51
2021/07/15 10:28:50;;;;;;;15.85;4.43;;;768.70;972.80;;;;;;5093509;28;20032;-54
2021/07/15 10:31:18;;;;;;;14.60;4.85;;;768.70;998.40;;;;;;5093287;28;20020;-58
2021/07/15 10:33:46;;;;;;;9.50;3.42;;;768.70;1049.60;;;;;;5093321;28;20475;-58
2021/07/15 10:36:12;;;;;;;14.65;5.45;;;768.80;972.80;;;;;;5093387;28;20103;-59
2021/07/15 10:38:42;;;;;;;16.38;6.18;;;768.70;998.40;;;;;;5093235;28;20024;-59
2021/07/15 10:41:09;;;;;;;10.48;3.58;;;768.80;972.80;;;;;;5093528;28;20025;-59
2021/07/15 10:43:37;;;;;;;5.85;2.92;;;768.90;972.80;;;;;;5093519;28;20024;-59
2021/07/15 10:46:04;;;;;;;19.52;10.40;;;768.90;972.80;;;;;;5093114;28;20016;-52
2021/07/15 10:48:33;;;;;;;13.15;7.35;;;768.80;972.80;;;;;;5095705;28;20031;-59
2021/07/15 10:51:00;;;;;;;8.73;4.68;;;768.90;1024.00;;;;;;5097036;28;20116;-59
2021/07/15 10:53:34;;;;;;;9.23;4.35;;;768.90;1049.60;;;;;;5096956;28;20020;-59
2021/07/15 10:56:01;;;;;;;9.00;3.03;;;768.90;998.40;;;;;;5097120;28;20020;-59
2021/07/15 10:58:43;;;;;;;7.35;2.20;;;768.90;998.40;;;;;;5096830;28;20020;-58
2021/07/15 11:01:30;;;;;;;8.98;2.60;;;793.60;1049.60;;;;;;5096776;28;20017;-52
2021/07/15 11:04:10;;;;;;;9.40;3.60;;;793.60;972.80;;;;;;5082571;28;20476;-59
2021/07/15 11:06:39;;;;;;;7.22;3.17;;;768.90;1024.00;;;;;;5096644;28;20067;-53
2021/07/15 11:09:05;;;;;;;8.98;2.92;;;793.60;1049.60;;;;;;5096660;28;20024;-52
2021/07/15 11:11:36;;;;;;;4.50;2.38;;;793.60;1075.20;;;;;;5096787;28;20035;-51
2021/07/15 11:14:03;;;;;;;9.02;2.72;;;793.60;998.40;;;;;;5096598;28;20039;-52
2021/07/15 11:16:50;;;;;;;10.65;2.92;;;768.90;998.40;;;;;;5096449;28;20481;-59
2021/07/15 11:19:54;;;;;;;9.77;3.08;;;768.90;998.40;;;;;;5096372;28;20032;-59
2021/07/15 11:22:34;;;;;;;5.28;1.58;;;768.90;1024.00;;;;;;5096318;28;20477;-59
2021/07/15 11:25:08;;;;;;;5.93;2.40;;;793.60;998.40;;;;;;5096104;28;20054;-60
2021/07/15 11:27:37;;;;;;;5.90;2.40;;;793.60;998.40;;;;;;5096341;28;20034;-58
2021/07/15 11:30:05;;;;;;;7.10;1.50;;;793.70;1024.00;;;;;;5096237;28;20019;-59
2021/07/15 11:32:31;;;;;;;8.65;2.50;;;793.70;998.40;;;;;;5096236;28;20023;-59
2021/07/15 11:34:58;;;;;;;10.43;2.40;;;793.70;998.40;;;;;;5096298;28;20020;-53
2021/07/15 11:37:27;;;;;;;9.32;2.10;;;793.70;972.80;;;;;;5095774;28;20484;-58
2021/07/15 11:39:53;;;;;;;5.07;1.70;;;793.70;1049.60;;;;;;5096021;28;20031;-60
2021/07/15 11:42:24;;;;;;;8.20;2.50;;;793.70;972.80;;;;;;5096036;28;20069;-59
2021/07/15 11:45:10;;;;;;;4.85;2.15;;;793.80;1049.60;;;;;;5095990;28;20020;-51
2021/07/15 11:47:51;;;;;;;10.50;2.25;;;793.80;1024.00;;;;;;5095140;28;20493;-57
2021/07/15 11:50:33;;;;;;;6.57;2.10;;;793.80;947.20;;;;;;5094805;28;20484;-52
2021/07/15 11:53:18;;;;;;;7.28;1.95;;;793.80;998.40;;;;;;5095783;28;20063;-51
2021/07/15 11:55:48;;;;;;;9.23;2.50;;;793.80;1024.00;;;;;;5096032;28;20099;-52
2021/07/15 11:58:39;;;;;;;9.95;1.85;;;793.80;1049.60;;;;;;5095580;28;20074;-59
2021/07/15 12:01:20;;;;;;;4.60;1.58;;;793.90;1075.20;;;;;;5095251;28;20078;-59
2021/07/15 12:03:59;;;;;;;9.15;2.05;;;793.90;1024.00;;;;;;5095672;28;20016;-58
2021/07/15 12:06:26;;;;;;;12.40;1.95;;;794.00;1049.60;;;;;;5095544;28;20024;-55
2021/07/15 12:08:52;;;;;;;6.32;1.65;;;794.00;1075.20;;;;;;5095568;28;20048;-52
2021/07/15 12:11:22;;;;;;;4.25;1.80;;;794.00;1024.00;;;;;;5095468;28;20059;-51
2021/07/15 12:13:53;;;;;;;5.47;1.83;;;794.00;998.40;;;;;;5095712;28;20034;-51
2021/07/15 12:16:24;;;;;;;7.57;2.10;;;794.10;972.80;;;;;;5095434;28;20486;-54
2021/07/15 12:18:53;;;;;;;5.63;1.58;;;794.10;1075.20;;;;;;5095628;28;20256;-58
2021/07/15 12:21:22;;;;;;;6.07;1.88;;;794.10;1024.00;;;;;;5095263;28;20044;-58
2021/07/15 12:23:50;;;;;;;6.65;1.90;;;794.10;1024.00;;;;;;5095223;28;20055;-59
2021/07/15 12:26:21;;;;;;;5.97;1.90;;;794.10;1049.60;;;;;;5094974;28;20059;-59